Spirit of New Zealand — ZMSV — position and weather

sailwx.info

Track history (hours):
 
Tides and Currents Weather Stations Pressure Air Temp Water Temp Dewpoint Dewpoint Depression Visibility Wind Speed Wind Dir Waves Ship Positions

Spirit of New Zealand

Last reported at 2017-Dec-15 23:36 UTC. Time now 2017-Dec-16 01:51 UTC.
Position S 36°48' E 174°57'.

Length 45 m; draft 4.1 m.

Type: Passenger vessel. MMSI: 512201000.

Date/timePositionNaut miles runAvg speedWind from/ knotsBaromVisibWave heightAir tempDewpointWater temp
2017-Dec-15 23:36S 36°48' E 174°57'0 0.8
2017-Dec-15 23:28S 36°48' E 174°57'2 4.9
2017-Dec-15 22:59S 36°46' E 174°58'3 5.6
2017-Dec-15 22:30S 36°44' E 174°56'2 3.2
2017-Dec-15 21:54S 36°42' E 174°55'2 5.8
2017-Dec-15 21:31S 36°40' E 174°53'4 7.1
2017-Dec-15 21:01S 36°38' E 174°49'1 1.0
2017-Dec-15 20:26S 36°38' E 174°49'0 0.0
2017-Dec-15 19:56S 36°38' E 174°49'0 0.0
2017-Dec-15 19:26S 36°38' E 174°49'0 0.0
2017-Dec-15 18:56S 36°38' E 174°49'0 0.0
2017-Dec-15 18:26S 36°38' E 174°49'0 0.0
2017-Dec-15 17:56S 36°38' E 174°49'0 0.0
2017-Dec-15 17:26S 36°38' E 174°49'0 0.0
2017-Dec-15 16:56S 36°38' E 174°49'0 0.0
2017-Dec-15 16:26S 36°38' E 174°49'0 0.0
2017-Dec-15 15:56S 36°38' E 174°49'0 0.0
2017-Dec-15 15:26S 36°38' E 174°49'0 0.0
2017-Dec-15 14:56S 36°38' E 174°49'0 0.0
2017-Dec-15 14:26S 36°38' E 174°49'0 0.0
2017-Dec-15 13:56S 36°38' E 174°49'0 0.0
2017-Dec-15 13:26S 36°38' E 174°49'0 0.0
2017-Dec-15 12:56S 36°38' E 174°49'0 0.0
2017-Dec-15 12:26S 36°38' E 174°49'0 0.0
2017-Dec-15 11:56S 36°38' E 174°49'0 0.0
2017-Dec-15 11:26S 36°38' E 174°49'0 0.0
2017-Dec-15 10:56S 36°38' E 174°49'0 0.0
2017-Dec-15 10:26S 36°38' E 174°49'0 0.0
2017-Dec-15 09:56S 36°38' E 174°49'0 0.0
2017-Dec-15 09:26S 36°38' E 174°49'0 0.0
2017-Dec-15 08:56S 36°38' E 174°49'0 0.0
2017-Dec-15 08:26S 36°38' E 174°49'0 0.0
2017-Dec-15 07:56S 36°38' E 174°49'0 0.0
2017-Dec-15 07:20S 36°38' E 174°49'0 0.0
2017-Dec-15 06:56S 36°38' E 174°49'0 0.0
2017-Dec-15 06:26S 36°38' E 174°49'0 0.0
2017-Dec-15 05:56S 36°38' E 174°49'0 0.1
2017-Dec-15 05:26S 36°38' E 174°49'0 0.0
2017-Dec-15 04:56S 36°38' E 174°49'1 1.5
2017-Dec-15 04:30S 36°38' E 174°49'3 6.4
2017-Dec-15 04:00S 36°35' E 174°51'6 4.2
2017-Dec-15 02:30S 36°29' E 174°49'5 2.8
2017-Dec-15 00:38S 36°24' E 174°46'0 0.0
2017-Dec-15 00:20S 36°24' E 174°46'0 0.0
2017-Dec-14 18:26S 36°24' E 174°46'0 0.0
2017-Dec-14 17:38S 36°24' E 174°46'0 0.0
2017-Dec-14 17:26S 36°24' E 174°46'0 0.0
2017-Dec-14 16:50S 36°24' E 174°46'0 0.0
2017-Dec-14 16:26S 36°24' E 174°46'0 0.0
2017-Dec-14 15:56S 36°24' E 174°46'0 0.0
2017-Dec-14 14:56S 36°24' E 174°46'0 0.0
2017-Dec-14 14:26S 36°24' E 174°46'0 0.0
2017-Dec-14 13:56S 36°24' E 174°46'0 0.0
2017-Dec-14 13:26S 36°24' E 174°46'0 0.0
2017-Dec-14 12:56S 36°24' E 174°46'0 0.0
2017-Dec-14 12:20S 36°24' E 174°46'0 0.0
2017-Dec-14 11:56S 36°24' E 174°46'0 0.0
2017-Dec-14 11:26S 36°24' E 174°46'0 0.0
2017-Dec-14 10:56S 36°24' E 174°46'0 0.0
2017-Dec-14 10:26S 36°24' E 174°46'0 0.0
2017-Dec-14 09:56S 36°24' E 174°46'0 0.0
2017-Dec-14 09:26S 36°24' E 174°46'0 0.0
2017-Dec-14 08:56S 36°24' E 174°46'0 0.0
2017-Dec-14 08:26S 36°24' E 174°46'0 0.0
2017-Dec-14 07:56S 36°24' E 174°46'0 0.0
2017-Dec-14 07:26S 36°24' E 174°46'0 0.0
2017-Dec-14 06:56S 36°24' E 174°46'0 0.0
2017-Dec-14 06:26S 36°24' E 174°46'0 0.0
2017-Dec-14 05:56S 36°24' E 174°46'0 0.0
2017-Dec-14 05:26S 36°24' E 174°46'0 0.0
2017-Dec-14 04:56S 36°24' E 174°46'0 0.0
2017-Dec-14 04:26S 36°24' E 174°46'0 0.1
2017-Dec-14 04:00S 36°24' E 174°46'3 6.6
2017-Dec-14 03:30S 36°27' E 174°49'4 8.3
2017-Dec-14 03:00S 36°29' E 174°53'4 7.3
2017-Dec-14 02:30S 36°28' E 174°57'2 4.1
2017-Dec-14 02:00S 36°27' E 174°60'2 4.5
2017-Dec-14 01:30S 36°26' E 175°02'2 3.9
2017-Dec-14 01:00S 36°25' E 175°04'3 5.7
2017-Dec-14 00:29S 36°23' E 175°07'5 9.0
2017-Dec-13 23:59S 36°19' E 175°07'  
2017-Dec-10 03:09S 36°21' E 175°18'3 8.4
2017-Dec-10 02:49S 36°21' E 175°15'3 8.1
2017-Dec-10 02:29S 36°21' E 175°11'3 7.2
2017-Dec-10 02:00S 36°21' E 175°07'3 6.4
2017-Dec-10 01:30S 36°21' E 175°03'3 6.8
2017-Dec-10 01:00S 36°21' E 174°59'4 7.6
2017-Dec-10 00:30S 36°22' E 174°55'5 8.1
2017-Dec-09 23:51S 36°25' E 174°49'3 7.9
2017-Dec-09 23:27S 36°27' E 174°47'3 7.1
2017-Dec-09 23:00S 36°30' E 174°45'1 1.1
2017-Dec-09 22:17S 36°30' E 174°44'0 0.0
2017-Dec-09 21:53S 36°30' E 174°44'0 0.0
2017-Dec-09 21:17S 36°30' E 174°44'0 0.0
2017-Dec-09 20:47S 36°30' E 174°44'0 0.0
2017-Dec-09 20:29S 36°30' E 174°44'0 0.0
2017-Dec-09 19:59S 36°30' E 174°44'0 0.0
2017-Dec-09 19:17S 36°30' E 174°44'0 0.0
2017-Dec-09 12:11S 36°30' E 174°44'0 0.0
2017-Dec-09 11:53S 36°30' E 174°44'0 0.0
2017-Dec-09 10:35S 36°30' E 174°44'0 0.1
2017-Dec-09 10:05S 36°30' E 174°44'0 0.0
2017-Dec-09 09:59S 36°30' E 174°44'0 0.0
2017-Dec-09 09:29S 36°30' E 174°44'0 0.0
2017-Dec-09 08:53S 36°30' E 174°44'0 0.0
2017-Dec-09 08:29S 36°30' E 174°44'0 0.0
2017-Dec-09 07:53S 36°30' E 174°44'0 0.0
2017-Dec-09 03:47S 36°30' E 174°44'0 0.0
2017-Dec-09 03:20S 36°30' E 174°44'2 7.0
2017-Dec-09 03:00S 36°31' E 174°47'4 7.2
2017-Dec-09 02:30S 36°32' E 174°51'3 6.5
2017-Dec-09 02:00S 36°34' E 174°55'3 5.3
2017-Dec-09 01:30S 36°35' E 174°58'3 5.8
2017-Dec-09 01:00S 36°36' E 175°01'12 4.2
2017-Dec-08 22:07S 36°48' E 174°58'1 6.8
2017-Dec-08 22:00S 36°49' E 174°58'10 0.4
2017-Dec-07 21:02S 36°50' E 174°46'0 5.4
2017-Dec-07 21:00S 36°50' E 174°46'0 0.0
2017-Dec-07 02:52S 36°51' E 174°46'1 1.7
2017-Dec-07 02:30S 36°50' E 174°46'0 1.0
2017-Dec-07 02:00S 36°50' E 174°45'3 6.0
2017-Dec-07 01:29S 36°50' E 174°49'4 6.9
2017-Dec-07 00:56S 36°49' E 174°54'  
Track history (hours):
 
Tides and Currents Weather Stations Pressure Air Temp Water Temp Dewpoint Dewpoint Depression Visibility Wind Speed Wind Dir Waves Ship Positions

Spirit of New Zealand

Last reported at 2017-Dec-15 23:36 UTC. Time now 2017-Dec-16 01:51 UTC.
Position S 36°48' E 174°57'.

Length 45 m; draft 4.1 m.

Type: Passenger vessel. MMSI: 512201000.

Date/timePositionNaut miles runAvg speedWind from/ knotsBaromVisibWave heightAir tempDewpointWater temp
2017-Dec-15 23:36S 36°48' E 174°57'0 0.8
2017-Dec-15 23:28S 36°48' E 174°57'2 4.9
2017-Dec-15 22:59S 36°46' E 174°58'3 5.6
2017-Dec-15 22:30S 36°44' E 174°56'2 3.2
2017-Dec-15 21:54S 36°42' E 174°55'2 5.8
2017-Dec-15 21:31S 36°40' E 174°53'4 7.1
2017-Dec-15 21:01S 36°38' E 174°49'1 1.0
2017-Dec-15 20:26S 36°38' E 174°49'0 0.0
2017-Dec-15 19:56S 36°38' E 174°49'0 0.0
2017-Dec-15 19:26S 36°38' E 174°49'0 0.0
2017-Dec-15 18:56S 36°38' E 174°49'0 0.0
2017-Dec-15 18:26S 36°38' E 174°49'0 0.0
2017-Dec-15 17:56S 36°38' E 174°49'0 0.0
2017-Dec-15 17:26S 36°38' E 174°49'0 0.0
2017-Dec-15 16:56S 36°38' E 174°49'0 0.0
2017-Dec-15 16:26S 36°38' E 174°49'0 0.0
2017-Dec-15 15:56S 36°38' E 174°49'0 0.0
2017-Dec-15 15:26S 36°38' E 174°49'0 0.0
2017-Dec-15 14:56S 36°38' E 174°49'0 0.0
2017-Dec-15 14:26S 36°38' E 174°49'0 0.0
2017-Dec-15 13:56S 36°38' E 174°49'0 0.0
2017-Dec-15 13:26S 36°38' E 174°49'0 0.0
2017-Dec-15 12:56S 36°38' E 174°49'0 0.0
2017-Dec-15 12:26S 36°38' E 174°49'0 0.0
2017-Dec-15 11:56S 36°38' E 174°49'0 0.0
2017-Dec-15 11:26S 36°38' E 174°49'0 0.0
2017-Dec-15 10:56S 36°38' E 174°49'0 0.0
2017-Dec-15 10:26S 36°38' E 174°49'0 0.0
2017-Dec-15 09:56S 36°38' E 174°49'0 0.0
2017-Dec-15 09:26S 36°38' E 174°49'0 0.0
2017-Dec-15 08:56S 36°38' E 174°49'0 0.0
2017-Dec-15 08:26S 36°38' E 174°49'0 0.0
2017-Dec-15 07:56S 36°38' E 174°49'0 0.0
2017-Dec-15 07:20S 36°38' E 174°49'0 0.0
2017-Dec-15 06:56S 36°38' E 174°49'0 0.0
2017-Dec-15 06:26S 36°38' E 174°49'0 0.0
2017-Dec-15 05:56S 36°38' E 174°49'0 0.1
2017-Dec-15 05:26S 36°38' E 174°49'0 0.0
2017-Dec-15 04:56S 36°38' E 174°49'1 1.5
2017-Dec-15 04:30S 36°38' E 174°49'3 6.4
2017-Dec-15 04:00S 36°35' E 174°51'6 4.2
2017-Dec-15 02:30S 36°29' E 174°49'5 2.8
2017-Dec-15 00:38S 36°24' E 174°46'0 0.0
2017-Dec-15 00:20S 36°24' E 174°46'0 0.0
2017-Dec-14 18:26S 36°24' E 174°46'0 0.0
2017-Dec-14 17:38S 36°24' E 174°46'0 0.0
2017-Dec-14 17:26S 36°24' E 174°46'0 0.0
2017-Dec-14 16:50S 36°24' E 174°46'0 0.0
2017-Dec-14 16:26S 36°24' E 174°46'0 0.0
2017-Dec-14 15:56S 36°24' E 174°46'0 0.0
2017-Dec-14 14:56S 36°24' E 174°46'0 0.0
2017-Dec-14 14:26S 36°24' E 174°46'0 0.0
2017-Dec-14 13:56S 36°24' E 174°46'0 0.0
2017-Dec-14 13:26S 36°24' E 174°46'0 0.0
2017-Dec-14 12:56S 36°24' E 174°46'0 0.0
2017-Dec-14 12:20S 36°24' E 174°46'0 0.0
2017-Dec-14 11:56S 36°24' E 174°46'0 0.0
2017-Dec-14 11:26S 36°24' E 174°46'0 0.0
2017-Dec-14 10:56S 36°24' E 174°46'0 0.0
2017-Dec-14 10:26S 36°24' E 174°46'0 0.0
2017-Dec-14 09:56S 36°24' E 174°46'0 0.0
2017-Dec-14 09:26S 36°24' E 174°46'0 0.0
2017-Dec-14 08:56S 36°24' E 174°46'0 0.0
2017-Dec-14 08:26S 36°24' E 174°46'0 0.0
2017-Dec-14 07:56S 36°24' E 174°46'0 0.0
2017-Dec-14 07:26S 36°24' E 174°46'0 0.0
2017-Dec-14 06:56S 36°24' E 174°46'0 0.0
2017-Dec-14 06:26S 36°24' E 174°46'0 0.0
2017-Dec-14 05:56S 36°24' E 174°46'0 0.0
2017-Dec-14 05:26S 36°24' E 174°46'0 0.0
2017-Dec-14 04:56S 36°24' E 174°46'0 0.0
2017-Dec-14 04:26S 36°24' E 174°46'0 0.1
2017-Dec-14 04:00S 36°24' E 174°46'3 6.6
2017-Dec-14 03:30S 36°27' E 174°49'4 8.3
2017-Dec-14 03:00S 36°29' E 174°53'4 7.3
2017-Dec-14 02:30S 36°28' E 174°57'2 4.1
2017-Dec-14 02:00S 36°27' E 174°60'2 4.5
2017-Dec-14 01:30S 36°26' E 175°02'2 3.9
2017-Dec-14 01:00S 36°25' E 175°04'3 5.7
2017-Dec-14 00:29S 36°23' E 175°07'5 9.0
2017-Dec-13 23:59S 36°19' E 175°07'  
2017-Dec-10 03:09S 36°21' E 175°18'3 8.4
2017-Dec-10 02:49S 36°21' E 175°15'3 8.1
2017-Dec-10 02:29S 36°21' E 175°11'3 7.2
2017-Dec-10 02:00S 36°21' E 175°07'3 6.4
2017-Dec-10 01:30S 36°21' E 175°03'3 6.8
2017-Dec-10 01:00S 36°21' E 174°59'4 7.6
2017-Dec-10 00:30S 36°22' E 174°55'5 8.1
2017-Dec-09 23:51S 36°25' E 174°49'3 7.9
2017-Dec-09 23:27S 36°27' E 174°47'3 7.1
2017-Dec-09 23:00S 36°30' E 174°45'1 1.1
2017-Dec-09 22:17S 36°30' E 174°44'0 0.0
2017-Dec-09 21:53S 36°30' E 174°44'0 0.0
2017-Dec-09 21:17S 36°30' E 174°44'0 0.0
2017-Dec-09 20:47S 36°30' E 174°44'0 0.0
2017-Dec-09 20:29S 36°30' E 174°44'0 0.0
2017-Dec-09 19:59S 36°30' E 174°44'0 0.0
2017-Dec-09 19:17S 36°30' E 174°44'0 0.0
2017-Dec-09 12:11S 36°30' E 174°44'0 0.0
2017-Dec-09 11:53S 36°30' E 174°44'0 0.0
2017-Dec-09 10:35S 36°30' E 174°44'0 0.1
2017-Dec-09 10:05S 36°30' E 174°44'0 0.0
2017-Dec-09 09:59S 36°30' E 174°44'0 0.0
2017-Dec-09 09:29S 36°30' E 174°44'0 0.0
2017-Dec-09 08:53S 36°30' E 174°44'0 0.0
2017-Dec-09 08:29S 36°30' E 174°44'0 0.0
2017-Dec-09 07:53S 36°30' E 174°44'0 0.0
2017-Dec-09 03:47S 36°30' E 174°44'0 0.0
2017-Dec-09 03:20S 36°30' E 174°44'2 7.0
2017-Dec-09 03:00S 36°31' E 174°47'4 7.2
2017-Dec-09 02:30S 36°32' E 174°51'3 6.5
2017-Dec-09 02:00S 36°34' E 174°55'3 5.3
2017-Dec-09 01:30S 36°35' E 174°58'3 5.8
2017-Dec-09 01:00S 36°36' E 175°01'12 4.2
2017-Dec-08 22:07S 36°48' E 174°58'1 6.8
2017-Dec-08 22:00S 36°49' E 174°58'10 0.4
2017-Dec-07 21:02S 36°50' E 174°46'0 5.4
2017-Dec-07 21:00S 36°50' E 174°46'0 0.0
2017-Dec-07 02:52S 36°51' E 174°46'1 1.7
2017-Dec-07 02:30S 36°50' E 174°46'0 1.0
2017-Dec-07 02:00S 36°50' E 174°45'3 6.0
2017-Dec-07 01:29S 36°50' E 174°49'4 6.9
2017-Dec-07 00:56S 36°49' E 174°54'  

Dump ship's entire track history